Terminal Aerodrome Forecast
Issued by NWS

Home | Current Version | Previous Version | Text Only | Print | Product List | Glossary On
Versions: 1 2 3 4 5 6 7 8 9 10 11 12 13 14 15 16 17 18 19 20 21 22 23 24 25 26 27 28 29 30 31 32 33 34 35 36 37 38
000
FTUS43 KPAH 302005 AAA
TAFOWB
TAF AMD
KOWB 302005Z 3020/0118 28010KT P6SM BKN050
     FM010100 VRB03KT P6SM VCTS SCT050CB
     FM010400 00000KT P6SM BKN150
     FM011300 28004KT P6SM OVC080 PROB30 0115/0118 4SM SHRA BR=

USA.gov is the U.S. government's official web portal to all federal, state and local government web resources and services.